Latest Weather Observations for Bellambi

IDN60801

Issued at 8:32 pm EDT Friday 18 January 2019 (issued every 10 minutes, with the page automatically refreshed every 10 minutes)

About weather observations | Map of weather stations | Latest weather observations for NSW | Other Formats
Station Details ID: 068228 Name: BELLAMBI AWS Lat: -34.37 Lon: 150.93 Height: 10.0 m
Data from the previous 72 hours. | See also: Recent months at Bellambi
Date/Time
EDT
Temp
°C
App
Temp
°C
Dew
Point
°C
Rel
Hum
%
Delta-T
°C
Wind Press
QNH
hPa
Press
MSL
hPa
Rain since
9am
mm
Dir  Spd
km/h
Gust
km/h
Spd
kts
Gust
kts
18/08:30pm 22.8 24.7 19.8 83 1.9 N 9 15 5 8 - - 0.0
18/08:00pm 22.6 23.8 19.8 84 1.8 NNE 13 17 7 9 - - 0.0
18/07:30pm 22.8 23.9 19.6 82 2.0 NNE 13 17 7 9 - - 0.0
18/07:00pm 23.4 24.2 19.8 80 2.3 N 15 19 8 10 - - 0.0
18/06:30pm 23.9 23.3 19.8 78 2.6 NNE 22 28 12 15 - - 0.0
18/06:00pm 24.6 24.7 20.3 77 2.8 NNE 20 26 11 14 - - 0.0
18/05:30pm 24.5 23.9 20.4 78 2.7 NNE 24 30 13 16 - - 0.0
18/05:00pm 24.7 25.1 20.6 78 2.7 NNE 19 26 10 14 - - 0.0
18/04:30pm 24.8 25.1 20.7 78 2.7 NNE 20 28 11 15 - - 0.0
18/04:00pm 25.1 26.2 21.2 79 2.6 NNE 17 20 9 11 - - 0.0
18/03:30pm 24.5 24.9 20.6 79 2.5 NNE 19 24 10 13 - - 0.0
18/03:00pm 23.9 24.5 20.2 80 2.4 NNE 17 20 9 11 - - 0.0
18/02:30pm 24.1 24.4 20.4 80 2.4 NNE 19 24 10 13 - - 0.0
18/02:00pm 23.9 24.3 19.8 78 2.6 NNE 17 22 9 12 - - 0.0
18/01:30pm 24.5 26.0 20.6 79 2.5 N 13 17 7 9 - - 0.0
18/01:00pm 24.8 26.6 21.1 80 2.4 N 13 17 7 9 - - 0.0
18/12:30pm 24.4 26.0 20.7 80 2.4 NNE 13 17 7 9 - - 0.0
18/12:00pm 24.8 25.7 20.9 79 2.6 NNE 17 24 9 13 - - 0.0
18/11:30am 24.1 22.9 20.0 78 2.6 NE 26 32 14 17 - - 0.0
18/11:00am 24.3 22.6 19.8 76 2.9 NE 28 35 15 19 - - 0.0
18/10:30am 24.9 23.1 20.4 76 2.9 NE 30 39 16 21 - - 0.0
18/10:00am 24.4 22.2 20.3 78 2.7 NNE 32 41 17 22 - - 0.0
18/09:30am 24.5 22.5 20.0 76 2.9 NNE 30 35 16 19 - - 0.0
18/09:00am 24.5 23.9 19.8 75 3.0 NNE 22 28 12 15 - - 0.0
18/08:30am 24.9 24.2 20.2 75 3.1 NNW 24 33 13 18 - - 0.0
18/08:00am 24.3 23.2 20.2 78 2.7 NNW 26 33 14 18 - - 0.0
18/07:30am 23.7 23.5 20.6 83 2.0 NNW 22 30 12 16 - - 0.0
18/07:00am 23.2 23.6 20.7 86 1.6 NNW 19 22 10 12 - - 0.0
18/06:30am 22.5 24.4 20.6 89 1.2 NW 11 15 6 8 - - 0.0
18/06:00am 22.3 22.7 20.6 90 1.1 NNW 19 22 10 12 - - 0.0
18/05:38am 22.2 24.4 20.3 89 1.2 NW 9 11 5 6 - - 0.0
18/05:30am 22.2 24.4 20.3 89 1.2 NW 9 11 5 6 - - 0.0
18/05:00am 22.3 24.8 20.2 88 1.4 W 7 13 4 7 - - 0.0
18/04:53am 22.3 24.0 20.2 88 1.4 WNW 11 13 6 7 - - 0.0
18/04:30am 22.4 25.1 20.3 88 1.4 SW 6 11 3 6 - - 0.0
18/04:14am 22.6 26.6 20.5 88 1.4 CALM 0 0 0 0 - - 0.0
18/04:00am 22.7 25.6 20.6 88 1.4 WSW 6 9 3 5 - - 0.0
18/03:38am 22.7 25.4 20.6 88 1.4 WSW 7 15 4 8 - - 0.0
18/03:30am 22.2 24.3 20.1 88 1.4 WSW 9 15 5 8 - - 0.0
18/03:00am 22.3 24.7 20.0 87 1.5 S 7 11 4 6 - - 0.0
18/02:30am 22.3 26.0 20.0 87 1.5 CALM 0 0 0 0 - - 0.0
18/02:00am 22.5 24.5 20.0 86 1.6 SE 9 13 5 7 - - 0.0
18/01:30am 22.6 25.1 20.3 87 1.5 SSE 7 11 4 6 - - 0.0
18/01:00am 22.3 23.2 20.0 87 1.5 SE 15 19 8 10 - - 0.0
18/12:30am 22.3 21.1 20.0 87 1.5 SE 26 32 14 17 - - 0.0
18/12:00am 22.9 22.5 20.2 85 1.7 SSE 22 32 12 17 - - 0.0
 
Date/Time
EDT
Temp
°C
App
Temp
°C
Dew
Point
°C
Rel
Hum
%
Delta-T
°C
Wind Press
QNH
hPa
Press
MSL
hPa
Rain since
9am
mm
Dir  Spd
km/h
Gust
km/h
Spd
kts
Gust
kts
17/11:30pm 22.9 22.2 20.2 85 1.7 SSE 24 30 13 16 - - 0.0
17/11:00pm 23.1 20.8 20.6 86 1.6 SSE 33 41 18 22 - - 0.0
17/10:30pm 22.3 20.7 20.0 87 1.5 SSW 28 33 15 18 - - 0.0
17/10:00pm 22.1 23.5 19.6 86 1.6 SSW 11 17 6 9 - - 0.0
17/09:30pm 22.2 24.4 19.6 85 1.7 ENE 7 9 4 5 - - 0.0
17/09:00pm 22.5 23.9 19.5 83 1.9 NNE 11 15 6 8 - - 0.0
17/08:30pm 22.8 24.6 19.6 82 2.0 NNE 9 13 5 7 - - 0.0
17/08:00pm 23.2 24.1 20.0 82 2.1 N 15 20 8 11 - - 0.0
17/07:30pm 23.1 22.6 19.9 82 2.1 NNE 22 28 12 15 - - 0.0
17/07:00pm 23.0 23.1 20.0 83 1.9 NNE 19 26 10 14 - - 0.0
17/06:30pm 23.4 23.0 20.2 82 2.1 NNE 22 28 12 15 - - 0.0
17/06:00pm 24.0 23.8 20.5 81 2.3 NNE 22 30 12 16 - - 0.0
17/05:30pm 24.4 24.7 20.7 80 2.4 NNE 20 28 11 15 - - 0.0
17/05:00pm 24.6 25.0 20.9 80 2.4 NNE 20 28 11 15 - - 0.0
17/04:30pm 24.8 24.7 20.7 78 2.7 NNE 22 28 12 15 - - 0.0
17/04:00pm 25.3 26.5 21.4 79 2.6 NNE 17 26 9 14 - - 0.0
17/03:30pm 25.4 26.2 21.7 80 2.5 NNE 20 26 11 14 - - 0.0
17/03:00pm 25.1 25.7 21.4 80 2.4 NNE 20 24 11 13 - - 0.0
17/02:30pm 25.0 26.1 21.3 80 2.4 NNE 17 22 9 12 - - 0.0
17/02:00pm 25.5 27.1 22.2 82 2.2 NNE 17 20 9 11 - - 0.0
17/01:30pm 25.1 26.8 21.6 81 2.3 NNE 15 19 8 10 - - 0.0
17/01:00pm 24.8 26.3 21.3 81 2.3 NNE 15 19 8 10 - - 0.0
17/12:30pm 25.3 27.1 21.8 81 2.3 NNE 15 19 8 10 - - 0.0
17/12:00pm 25.1 28.1 22.0 83 2.1 NNE 9 13 5 7 - - 0.0
17/11:30am 25.4 28.8 22.7 85 1.8 NE 9 13 5 7 - - 0.0
17/11:00am 25.0 28.2 22.3 85 1.8 NNE 9 11 5 6 - - 0.0
17/10:30am 24.3 26.0 21.6 85 1.8 NE 15 17 8 9 - - 0.0
17/10:00am 24.1 26.1 21.6 86 1.7 NE 13 15 7 8 - - 0.0
17/09:30am 24.3 26.9 22.0 87 1.5 NE 11 15 6 8 - - 0.0
17/09:00am 23.4 24.9 21.3 88 1.4 NE 15 17 8 9 - - 0.0
17/08:30am 23.0 24.8 21.1 89 1.2 ENE 13 15 7 8 - - 0.0
17/08:00am 22.8 25.3 21.1 90 1.1 NNE 9 11 5 6 - - 0.0
17/07:30am 22.3 24.7 20.8 91 1.0 NNE 9 13 5 7 - - 0.0
17/07:00am 22.1 24.8 20.6 91 1.0 ESE 7 11 4 6 - - 0.0
17/06:30am 22.1 26.1 20.6 91 1.0 CALM 0 0 0 0 - - 0.0
17/06:00am 22.2 24.9 20.7 91 1.0 S 7 9 4 5 - - 0.0
17/05:30am 22.3 23.9 20.8 91 1.0 S 13 15 7 8 - - 0.0
17/05:26am 22.3 23.9 20.8 91 1.0 S 13 17 7 9 - - 0.0
17/05:00am 22.2 23.4 20.7 91 1.0 SSW 15 17 8 9 - - 0.0
17/04:30am 22.2 23.8 20.7 91 1.0 SSW 13 17 7 9 - - 0.0
17/04:00am 22.3 24.3 20.8 91 1.0 S 11 13 6 7 - - 0.0
17/03:30am 22.3 24.3 20.8 91 1.0 S 11 13 6 7 - - 0.0
17/03:00am 22.3 23.9 20.8 91 1.0 S 13 17 7 9 - - 0.0
17/02:30am 22.2 23.8 20.7 91 1.0 S 13 17 7 9 - - 0.0
17/02:00am 22.2 23.8 20.8 92 0.9 SSE 13 15 7 8 - - 0.0
17/01:30am 22.1 22.9 20.7 92 0.9 S 17 20 9 11 - - 0.0
17/01:00am 21.8 23.2 20.4 92 0.9 SSW 13 15 7 8 - - 0.0
17/12:58am 21.7 23.5 20.3 92 0.9 SSW 11 15 6 8 - - 0.0
17/12:30am 21.7 23.0 20.2 91 1.0 SSW 13 15 7 8 - - 0.0
17/12:00am 21.7 23.0 20.2 91 1.0 SSW 13 15 7 8 - - 0.0
 
Date/Time
EDT
Temp
°C
App
Temp
°C
Dew
Point
°C
Rel
Hum
%
Delta-T
°C
Wind Press
QNH
hPa
Press
MSL
hPa
Rain since
9am
mm
Dir  Spd
km/h
Gust
km/h
Spd
kts
Gust
kts
16/11:30pm 22.1 22.5 20.6 91 1.0 S 19 20 10 11 - - 0.0
16/11:00pm 21.8 22.8 20.3 91 1.0 SSW 15 17 8 9 - - 0.0
16/10:30pm 21.6 23.9 19.9 90 1.1 E 7 13 4 7 - - 0.0
16/10:00pm 21.7 25.3 19.8 89 1.2 CALM 0 0 0 0 - - 0.0
16/09:30pm 21.9 25.6 20.0 89 1.2 CALM 0 0 0 0 - - 0.0
16/09:00pm 22.2 25.3 20.3 89 1.2 NE 4 7 2 4 - - 0.0
16/08:30pm 22.3 24.8 20.2 88 1.4 NE 7 9 4 5 - - 0.0
16/08:00pm 22.8 25.4 20.5 87 1.5 NNE 7 9 4 5 - - 0.0
16/07:30pm 23.2 25.3 20.9 87 1.5 NNE 11 15 6 8 - - 0.0
16/07:00pm 23.5 24.8 20.8 85 1.8 NNE 15 19 8 10 - - 0.0
16/06:30pm 24.2 26.9 21.3 84 1.9 NNE 9 13 5 7 - - 0.0
16/06:00pm 24.5 26.8 21.4 83 2.0 NNE 11 15 6 8 - - 0.0
16/05:30pm 24.7 27.0 21.4 82 2.2 NNE 11 15 6 8 - - 0.0
16/05:00pm 25.1 27.5 21.6 81 2.3 NNE 11 15 6 8 - - 0.0
16/04:30pm 24.9 26.8 21.4 81 2.3 NE 13 17 7 9 - - 0.0
16/04:00pm 25.3 27.3 21.6 80 2.5 NE 13 15 7 8 - - 0.0
16/03:30pm 25.4 28.4 21.9 81 2.3 NNE 9 13 5 7 - - 0.0
16/03:00pm 24.9 26.8 21.4 81 2.3 NE 13 17 7 9 - - 0.0
16/02:30pm 25.1 27.6 21.8 82 2.2 NE 11 15 6 8 - - 0.0
16/02:00pm 25.5 28.2 22.2 82 2.2 NE 11 13 6 7 - - 0.0
16/01:30pm 24.9 27.4 21.8 83 2.1 NE 11 13 6 7 - - 0.0
16/01:00pm 24.5 26.9 21.6 84 1.9 NE 11 13 6 7 - - 0.0
16/12:30pm 24.5 26.9 21.6 84 1.9 ENE 11 13 6 7 - - 0.0
16/12:00pm 24.6 27.6 21.9 85 1.8 ENE 9 11 5 6 - - 0.0
16/11:30am 23.8 26.8 21.3 86 1.6 E 7 9 4 5 - - 0.0
16/11:00am 23.8 26.9 21.5 87 1.5 ESE 7 9 4 5 - - 0.0
16/10:30am 23.9 27.2 21.8 88 1.4 ESE 7 9 4 5 - - 0.0
16/10:00am 23.3 26.5 21.6 90 1.1 SE 7 9 4 5 - - 0.0
16/09:30am 22.7 25.9 21.2 91 1.0 SE 6 7 3 4 - - 0.0
16/09:26am 22.8 26.0 21.3 91 1.0 SE 6 7 3 4 - - 0.0
16/09:00am 22.3 24.7 20.9 92 0.9 SSE 9 11 5 6 - - 0.0
16/08:30am 21.8 23.3 20.6 93 0.8 S 13 17 7 9 - - 0.0
16/08:00am 21.4 23.5 20.2 93 0.8 S 9 13 5 7 - - 0.0
16/07:30am 21.2 22.4 20.0 93 0.8 S 13 17 7 9 - - 0.0
16/07:07am 21.2 22.4 20.0 93 0.8 S 13 17 7 9 - - 0.0
16/07:00am 21.3 22.6 20.1 93 0.8 S 13 17 7 9 - - 0.0
16/06:30am 21.1 23.1 19.9 93 0.8 SSE 9 11 5 6 - - 0.0
16/06:00am 21.2 22.0 19.8 92 0.9 S 15 17 8 9 - - 0.0
16/05:33am 20.9 22.3 19.6 92 0.8 SW 11 13 6 7 - - 0.0
16/05:30am 20.9 22.7 19.6 92 0.8 SW 9 13 5 7 - - 0.0
16/05:18am 20.9 22.3 19.6 92 0.8 SW 11 13 6 7 - - 0.0
16/05:00am 20.6 22.3 19.3 92 0.8 W 9 9 5 5 - - 0.0
16/04:30am 20.5 22.5 19.2 92 0.8 SW 7 11 4 6 - - 0.0
16/04:00am 20.7 22.9 19.2 91 0.9 E 6 13 3 7 - - 0.0
16/03:30am 20.8 24.2 19.3 91 0.9 CALM 0 0 0 0 - - 0.0
16/03:00am 21.0 23.3 19.5 91 1.0 E 6 7 3 4 - - 0.0
16/02:30am 21.0 23.7 19.5 91 1.0 E 4 9 2 5 - - 0.0
16/02:00am 21.3 23.8 19.8 91 1.0 NNE 6 9 3 5 - - 0.0
16/01:30am 21.5 23.5 20.0 91 1.0 NNE 9 13 5 7 - - 0.0
16/01:00am 21.6 22.8 19.9 90 1.1 NNE 13 19 7 10 - - 0.0
16/12:30am 21.7 22.9 20.0 90 1.1 NNE 13 19 7 10 - - 0.0
16/12:00am 21.9 23.5 20.0 89 1.2 N 11 15 6 8 - - 0.0
 
Date/Time
EDT
Temp
°C
App
Temp
°C
Dew
Point
°C
Rel
Hum
%
Delta-T
°C
Wind Press
QNH
hPa
Press
MSL
hPa
Rain since
9am
mm
Dir  Spd
km/h
Gust
km/h
Spd
kts
Gust
kts
15/11:30pm 22.0 22.9 20.1 89 1.2 NNE 15 19 8 10 - - 0.0
15/11:00pm 22.2 23.5 20.1 88 1.4 NNE 13 17 7 9 - - 0.0
15/10:30pm 22.2 23.1 20.1 88 1.4 NNE 15 19 8 10 - - 0.0
15/10:00pm 22.4 23.7 20.1 87 1.5 NNE 13 17 7 9 - - 0.0
15/09:30pm 22.5 23.0 20.0 86 1.6 NNE 17 22 9 12 - - 0.0
15/09:00pm 22.5 23.7 19.9 85 1.7 NE 13 17 7 9 - - 0.0

Other Formats:

Comma delimited format used in spreadsheet applications
http://www.bom.gov.au/fwo/IDN60801/IDN60801.94749.axf

JavaScript Object Notation format (JSON) in row-major order
http://www.bom.gov.au/fwo/IDN60801/IDN60801.94749.json